createdAt,value
2018-04-30T00:02:41.386Z,12.10
2018-04-30T00:05:08.849Z,13.75
2018-04-30T00:07:36.300Z,13.77
2018-04-30T00:10:03.815Z,12.48
2018-04-30T00:12:31.288Z,13.30
2018-04-30T00:14:58.879Z,14.20
2018-04-30T00:17:26.356Z,13.00
2018-04-30T00:19:54.596Z,12.95
2018-04-30T00:22:22.104Z,12.88
2018-04-30T00:24:51.075Z,17.57
2018-04-30T00:27:18.547Z,19.83
2018-04-30T00:29:46.020Z,25.10
2018-04-30T00:32:13.478Z,33.92
2018-04-30T00:34:40.980Z,36.78
2018-04-30T00:37:08.454Z,41.47
2018-04-30T00:39:35.955Z,50.97
2018-04-30T00:42:03.499Z,48.90
2018-04-30T00:44:31.054Z,54.30
2018-04-30T00:46:58.626Z,54.20
2018-04-30T00:49:26.143Z,58.40
2018-04-30T00:51:54.371Z,61.42
2018-04-30T00:54:33.828Z,87.07
2018-04-30T00:57:01.325Z,77.45
2018-04-30T00:59:34.630Z,83.22
2018-04-30T01:02:02.183Z,86.83
2018-04-30T01:04:29.704Z,90.90
2018-04-30T01:06:57.195Z,88.15
2018-04-30T01:09:24.649Z,81.57
2018-04-30T01:11:52.128Z,80.15
2018-04-30T01:14:19.623Z,92.28
2018-04-30T01:16:47.090Z,76.60
2018-04-30T01:19:14.592Z,77.10
2018-04-30T01:21:42.149Z,74.70
2018-04-30T01:24:09.592Z,79.78
2018-04-30T01:26:37.085Z,68.70
2018-04-30T01:29:04.655Z,70.00
2018-04-30T01:31:32.134Z,57.30
2018-04-30T01:33:59.714Z,65.87
2018-04-30T01:36:27.179Z,65.70
2018-04-30T01:38:54.659Z,70.20
2018-04-30T01:41:22.139Z,64.07
2018-04-30T01:43:50.376Z,72.30
2018-04-30T01:46:17.826Z,67.30
2018-04-30T01:48:45.306Z,69.87
2018-04-30T01:51:12.798Z,69.20
2018-04-30T01:53:40.373Z,69.47
2018-04-30T01:56:07.848Z,66.22
2018-04-30T01:58:35.318Z,69.80
2018-04-30T02:01:02.769Z,65.18
2018-04-30T02:03:30.248Z,75.28
2018-04-30T02:05:57.737Z,66.45
2018-04-30T02:08:25.296Z,67.83
2018-04-30T02:10:52.856Z,68.15
2018-04-30T02:13:20.323Z,67.78
2018-04-30T02:15:47.799Z,70.78
2018-04-30T02:18:15.272Z,67.82
2018-04-30T02:20:42.844Z,63.35
2018-04-30T02:23:10.435Z,65.45
2018-04-30T02:25:37.908Z,62.97
2018-04-30T02:28:06.165Z,68.60
2018-04-30T02:30:33.646Z,63.47
2018-04-30T02:33:01.147Z,67.62
2018-04-30T02:35:29.378Z,59.37
2018-04-30T02:37:56.845Z,60.10
2018-04-30T02:40:24.352Z,60.85
2018-04-30T02:42:51.917Z,60.55
2018-04-30T02:45:19.484Z,64.57
2018-04-30T02:47:46.950Z,61.40
2018-04-30T02:50:14.426Z,74.90
2018-04-30T02:52:41.887Z,69.53
2018-04-30T02:55:09.323Z,67.82
2018-04-30T02:57:36.812Z,58.78
2018-04-30T03:00:04.282Z,60.35
2018-04-30T03:02:31.764Z,62.03
2018-04-30T03:04:59.349Z,59.47
2018-04-30T03:07:26.813Z,64.87
2018-04-30T03:09:54.283Z,76.43
2018-04-30T03:12:21.776Z,63.05
2018-04-30T03:14:49.324Z,70.07
2018-04-30T03:17:16.802Z,65.20
2018-04-30T03:19:44.366Z,68.10
2018-04-30T03:22:11.821Z,68.50
2018-04-30T03:24:39.313Z,68.37
2018-04-30T03:27:06.864Z,64.97
2018-04-30T03:29:34.337Z,64.95
2018-04-30T03:32:01.805Z,70.85
2018-04-30T03:34:29.398Z,66.75
2018-04-30T03:36:56.976Z,63.80
2018-04-30T03:39:24.552Z,69.40
2018-04-30T03:41:52.155Z,67.07
2018-04-30T03:44:20.368Z,65.63
2018-04-30T03:46:47.864Z,64.95
2018-04-30T03:49:15.439Z,63.55
2018-04-30T03:51:42.893Z,62.30
2018-04-30T03:54:10.379Z,67.37
2018-04-30T03:56:37.833Z,67.43
2018-04-30T03:59:05.302Z,66.78
2018-04-30T04:01:44.646Z,68.28
2018-04-30T04:04:24.877Z,62.03
2018-04-30T04:06:52.400Z,71.00
2018-04-30T04:09:19.982Z,68.20
2018-04-30T04:11:47.547Z,64.18
2018-04-30T04:14:15.018Z,69.95
2018-04-30T04:16:42.479Z,68.93
2018-04-30T04:19:09.939Z,72.20
2018-04-30T04:21:37.430Z,80.38
2018-04-30T04:24:04.901Z,77.57
2018-04-30T04:26:32.391Z,72.60
2018-04-30T04:29:00.620Z,75.80
2018-04-30T04:31:28.077Z,74.85
2018-04-30T04:33:55.562Z,80.97
2018-04-30T04:36:23.031Z,77.57
2018-04-30T04:38:50.542Z,88.95
2018-04-30T04:41:18.007Z,91.80
2018-04-30T04:43:45.464Z,93.68
2018-04-30T04:46:13.051Z,90.62
2018-04-30T04:48:40.598Z,95.95
2018-04-30T04:51:08.055Z,87.28
2018-04-30T04:53:35.526Z,81.72
2018-04-30T04:56:03.003Z,83.00
2018-04-30T04:58:30.474Z,83.18
2018-04-30T05:00:58.776Z,73.80
2018-04-30T05:03:26.962Z,83.62
2018-04-30T05:05:54.420Z,80.32
2018-04-30T05:08:21.883Z,83.93
2018-04-30T05:10:49.424Z,83.78
2018-04-30T05:13:16.827Z,82.88
2018-04-30T05:15:44.281Z,85.30
2018-04-30T05:18:11.760Z,79.82
2018-04-30T05:20:39.229Z,81.35
2018-04-30T05:23:06.683Z,84.20
2018-04-30T05:25:34.155Z,85.53
2018-04-30T05:28:01.637Z,93.37
2018-04-30T05:30:29.108Z,83.68
2018-04-30T05:32:56.612Z,86.47
2018-04-30T05:35:24.077Z,85.85
2018-04-30T05:37:51.533Z,96.97
2018-04-30T05:40:19.008Z,96.85
2018-04-30T05:42:46.477Z,91.07
2018-04-30T05:45:13.943Z,94.55
2018-04-30T05:47:41.420Z,107.10
2018-04-30T05:50:08.876Z,96.18
2018-04-30T05:52:36.359Z,97.00
2018-04-30T05:55:03.826Z,98.82
2018-04-30T05:57:31.297Z,104.18
2018-04-30T05:59:58.764Z,101.18
2018-04-30T06:02:26.247Z,96.85
2018-04-30T06:04:53.713Z,97.65
2018-04-30T06:07:21.194Z,101.62
2018-04-30T06:09:48.650Z,109.82
2018-04-30T06:12:16.175Z,111.15
2018-04-30T06:14:44.387Z,102.80
2018-04-30T06:17:12.696Z,105.95
2018-04-30T06:19:40.144Z,111.93
2018-04-30T06:22:08.384Z,110.80
2018-04-30T06:24:36.615Z,107.78
2018-04-30T06:27:04.155Z,100.85
2018-04-30T06:29:31.621Z,95.20
2018-04-30T06:31:59.085Z,90.75
2018-04-30T06:34:26.559Z,93.93
2018-04-30T06:36:54.787Z,92.07
2018-04-30T06:39:22.258Z,86.97
2018-04-30T06:41:49.734Z,84.15
2018-04-30T06:44:17.210Z,84.65
2018-04-30T06:46:44.660Z,81.28
2018-04-30T06:49:12.146Z,81.90
2018-04-30T06:51:39.603Z,71.57
2018-04-30T06:54:07.068Z,66.80
2018-04-30T06:56:34.560Z,61.22
2018-04-30T06:59:02.134Z,60.58
2018-04-30T07:01:29.599Z,50.80
2018-04-30T07:03:57.070Z,44.00
2018-04-30T07:06:24.571Z,45.25
2018-04-30T07:08:52.802Z,39.83
2018-04-30T07:11:20.259Z,37.15
2018-04-30T07:13:47.759Z,34.77
2018-04-30T07:16:15.219Z,31.98
2018-04-30T07:18:42.690Z,36.35
2018-04-30T07:21:10.164Z,29.23
2018-04-30T07:23:37.758Z,27.60
2018-04-30T07:26:05.271Z,23.73
2018-04-30T07:28:32.769Z,20.80
2018-04-30T07:31:00.239Z,18.08
2018-04-30T07:33:27.720Z,15.80
2018-04-30T07:35:55.226Z,13.73
2018-04-30T07:38:23.436Z,11.73
2018-04-30T07:40:50.899Z,11.12
2018-04-30T07:43:18.352Z,10.70
2018-04-30T07:45:46.611Z,9.55
2018-04-30T07:48:14.067Z,10.07
2018-04-30T07:50:41.552Z,9.00
2018-04-30T07:53:09.014Z,10.30
2018-04-30T07:55:36.484Z,9.35
2018-04-30T07:58:04.114Z,9.48
2018-04-30T08:00:31.632Z,8.10
2018-04-30T08:02:59.269Z,7.97
2018-04-30T08:05:26.657Z,7.32
2018-04-30T08:07:54.129Z,4.80
2018-04-30T08:10:21.585Z,4.40
2018-04-30T08:12:49.075Z,4.35
2018-04-30T08:15:16.550Z,4.30
2018-04-30T08:17:44.004Z,5.40
2018-04-30T08:20:11.468Z,3.87
2018-04-30T08:22:38.959Z,3.10
2018-04-30T08:25:06.431Z,4.60
2018-04-30T08:27:33.911Z,3.53
2018-04-30T08:30:01.492Z,3.80
2018-04-30T08:32:28.937Z,3.87
2018-04-30T08:34:56.401Z,4.70
2018-04-30T08:37:23.876Z,3.65
2018-04-30T08:39:51.430Z,4.85
2018-04-30T08:42:18.912Z,3.00
2018-04-30T08:44:46.376Z,3.40
2018-04-30T08:47:13.851Z,3.10
2018-04-30T08:49:41.318Z,2.83
2018-04-30T08:52:08.839Z,3.40
2018-04-30T08:54:36.359Z,2.60
2018-04-30T08:57:03.857Z,2.40
2018-04-30T08:59:31.423Z,2.83
2018-04-30T09:01:59.640Z,2.62
2018-04-30T09:04:27.149Z,3.30
2018-04-30T09:06:54.613Z,3.20
2018-04-30T09:09:22.159Z,2.80
2018-04-30T09:11:49.626Z,2.70
2018-04-30T09:14:17.151Z,3.17
2018-04-30T09:16:44.598Z,2.80
2018-04-30T09:19:12.091Z,2.80
2018-04-30T09:21:39.543Z,2.50
2018-04-30T09:24:07.031Z,2.50
2018-04-30T09:26:34.597Z,3.00
2018-04-30T09:29:02.075Z,5.62
2018-04-30T09:31:29.527Z,2.67
2018-04-30T09:33:56.971Z,3.20
2018-04-30T09:36:24.459Z,4.25
2018-04-30T09:38:51.924Z,4.15
2018-04-30T09:41:19.408Z,3.53
2018-04-30T09:43:46.886Z,3.60
2018-04-30T09:46:14.350Z,4.13
2018-04-30T09:48:41.809Z,3.90
2018-04-30T09:51:09.283Z,6.15
2018-04-30T09:53:36.745Z,3.70
2018-04-30T09:56:04.387Z,3.80
2018-04-30T09:58:31.900Z,3.30
2018-04-30T10:00:59.467Z,3.47
2018-04-30T10:03:27.052Z,3.58
2018-04-30T10:05:54.494Z,3.40
2018-04-30T10:08:21.999Z,3.50
2018-04-30T10:10:49.465Z,3.58
2018-04-30T10:13:16.915Z,3.40
2018-04-30T10:15:44.373Z,4.07
2018-04-30T10:18:11.821Z,3.30
2018-04-30T10:20:39.285Z,3.20
2018-04-30T10:23:06.761Z,3.40
2018-04-30T10:25:34.295Z,3.10
2018-04-30T10:28:01.854Z,3.10
2018-04-30T10:30:29.437Z,5.03
2018-04-30T10:32:56.991Z,4.10
2018-04-30T10:35:24.461Z,3.10
2018-04-30T10:37:52.004Z,3.28
2018-04-30T10:40:20.184Z,3.60
2018-04-30T10:42:47.655Z,3.03
2018-04-30T10:45:15.115Z,2.83
2018-04-30T10:47:43.346Z,3.10
2018-04-30T10:50:10.983Z,4.20
2018-04-30T10:52:38.485Z,2.90
2018-04-30T10:55:05.939Z,2.60
2018-04-30T10:57:33.384Z,2.87
2018-04-30T11:00:00.949Z,2.40
2018-04-30T11:02:29.196Z,3.17
2018-04-30T11:04:56.660Z,2.33
2018-04-30T11:07:24.130Z,2.40
2018-04-30T11:09:51.572Z,2.28
2018-04-30T11:12:19.058Z,2.20
2018-04-30T11:14:46.521Z,2.40
2018-04-30T11:17:13.990Z,2.20
2018-04-30T11:19:41.465Z,1.80
2018-04-30T11:22:08.901Z,1.70
2018-04-30T11:24:36.370Z,2.10
2018-04-30T11:27:03.828Z,2.17
2018-04-30T11:29:32.063Z,2.05
2018-04-30T11:31:59.559Z,1.98
2018-04-30T11:34:27.097Z,2.50
2018-04-30T11:36:54.559Z,2.97
2018-04-30T11:39:22.150Z,2.75
2018-04-30T11:41:49.725Z,1.80
2018-04-30T11:44:17.176Z,4.00
2018-04-30T11:46:44.651Z,1.85
2018-04-30T11:49:12.136Z,4.55
2018-04-30T11:51:39.604Z,3.50
2018-04-30T11:54:07.156Z,1.65
2018-04-30T11:56:34.610Z,2.60
2018-04-30T11:59:02.069Z,3.65
2018-04-30T12:01:29.532Z,1.85
2018-04-30T12:03:57.032Z,2.17
2018-04-30T12:06:24.504Z,2.92
2018-04-30T12:08:51.987Z,3.65
2018-04-30T12:11:19.544Z,1.67
2018-04-30T12:13:47.017Z,2.30
2018-04-30T12:16:14.491Z,2.30
2018-04-30T12:18:41.982Z,1.77
2018-04-30T12:21:09.522Z,3.00
2018-04-30T12:23:37.083Z,3.30
2018-04-30T12:26:04.481Z,3.70
2018-04-30T12:28:31.968Z,1.87
2018-04-30T12:30:59.531Z,3.12
2018-04-30T12:33:27.061Z,1.60
2018-04-30T12:35:55.269Z,4.70
2018-04-30T12:38:22.746Z,3.40
2018-04-30T12:40:50.200Z,4.50
2018-04-30T12:43:17.686Z,2.35
2018-04-30T12:45:45.150Z,2.00
2018-04-30T12:48:12.731Z,3.20
2018-04-30T12:50:40.280Z,1.98
2018-04-30T12:53:07.765Z,2.20
2018-04-30T12:55:35.340Z,2.80
2018-04-30T12:58:02.783Z,2.53
2018-04-30T13:00:30.266Z,2.90
2018-04-30T13:02:57.744Z,1.50
2018-04-30T13:05:25.206Z,2.70
2018-04-30T13:07:52.700Z,2.35
2018-04-30T13:10:20.184Z,1.62
2018-04-30T13:12:48.456Z,2.05
2018-04-30T13:15:15.973Z,1.42
2018-04-30T13:17:43.385Z,1.70
2018-04-30T13:20:10.886Z,1.55
2018-04-30T13:22:38.431Z,3.62
2018-04-30T13:25:05.902Z,2.10
2018-04-30T13:27:33.346Z,1.85
2018-04-30T13:30:00.819Z,3.40
2018-04-30T13:32:28.280Z,2.50
2018-04-30T13:34:55.738Z,4.20
2018-04-30T13:37:23.232Z,1.50
2018-04-30T13:39:50.715Z,2.30
2018-04-30T13:42:18.339Z,3.75
2018-04-30T13:44:45.872Z,5.00
2018-04-30T13:47:13.418Z,2.75
2018-04-30T13:49:40.900Z,2.80
2018-04-30T13:52:08.371Z,3.42
2018-04-30T13:54:35.926Z,2.70
2018-04-30T13:57:03.293Z,2.28
2018-04-30T13:59:30.763Z,1.45
2018-04-30T14:01:58.254Z,2.50
2018-04-30T14:04:25.768Z,2.42
2018-04-30T14:06:53.287Z,3.62
2018-04-30T14:09:20.859Z,2.08
2018-04-30T14:11:48.327Z,2.20
2018-04-30T14:14:15.807Z,4.20
2018-04-30T14:16:44.028Z,3.00
2018-04-30T14:19:11.557Z,3.80
2018-04-30T14:21:39.014Z,4.62
2018-04-30T14:24:06.490Z,2.10
2018-04-30T14:26:33.952Z,2.45
2018-04-30T14:29:01.421Z,1.60
2018-04-30T14:31:28.910Z,2.10
2018-04-30T14:33:56.355Z,1.12
2018-04-30T14:36:23.823Z,1.80
2018-04-30T14:38:51.284Z,2.80
2018-04-30T14:41:18.728Z,1.30
2018-04-30T14:43:46.195Z,1.80
2018-04-30T14:46:13.675Z,1.58
2018-04-30T14:48:41.142Z,3.30
2018-04-30T14:53:59.361Z,1.48
2018-04-30T14:56:26.826Z,2.00
2018-04-30T14:58:54.303Z,2.00
2018-04-30T15:01:21.768Z,1.90
2018-04-30T15:03:49.221Z,9.02
2018-04-30T15:06:16.680Z,1.50
2018-04-30T15:08:44.154Z,1.00
2018-04-30T15:11:11.615Z,1.40
2018-04-30T15:13:39.093Z,2.40
2018-04-30T15:16:06.553Z,1.80
2018-04-30T15:18:34.022Z,2.20
2018-04-30T15:21:01.462Z,4.87
2018-04-30T15:23:28.928Z,1.92
2018-04-30T15:25:56.390Z,1.60
2018-04-30T15:28:23.854Z,2.80
2018-04-30T15:30:51.323Z,1.42
2018-04-30T15:33:18.785Z,2.10
2018-04-30T15:35:46.283Z,1.70
2018-04-30T15:38:13.697Z,1.20
2018-04-30T15:40:41.151Z,1.20
2018-04-30T15:43:08.614Z,1.50
2018-04-30T15:45:36.088Z,1.50
2018-04-30T15:48:03.542Z,2.00
2018-04-30T15:50:31.766Z,2.20
2018-04-30T15:52:59.257Z,2.05
2018-04-30T15:55:26.717Z,1.37
2018-04-30T15:57:54.193Z,1.67
2018-04-30T16:00:22.418Z,1.30
2018-04-30T16:02:50.635Z,1.55
2018-04-30T16:05:18.094Z,1.90
2018-04-30T16:07:45.552Z,1.60
2018-04-30T16:10:13.764Z,2.50
2018-04-30T16:12:41.234Z,1.98
2018-04-30T16:15:08.690Z,1.80
2018-04-30T16:17:36.139Z,1.20
2018-04-30T16:20:04.383Z,2.10
2018-04-30T16:22:31.828Z,1.90
2018-04-30T16:24:59.299Z,2.03
2018-04-30T16:27:26.826Z,1.30
2018-04-30T16:29:54.282Z,1.10
2018-04-30T16:32:21.840Z,1.30
2018-04-30T16:34:49.414Z,1.30
2018-04-30T16:37:16.890Z,3.90
2018-04-30T16:39:44.372Z,3.65
2018-04-30T16:42:11.833Z,1.10
2018-04-30T16:44:39.298Z,1.50
2018-04-30T16:47:06.804Z,1.40
2018-04-30T16:49:34.244Z,1.80
2018-04-30T16:52:01.694Z,2.40
2018-04-30T16:54:29.176Z,1.80
2018-04-30T16:56:56.638Z,1.60
2018-04-30T16:59:24.095Z,2.20
2018-04-30T17:01:51.632Z,4.40
2018-04-30T17:04:19.840Z,1.40
2018-04-30T17:06:47.339Z,3.33
2018-04-30T17:09:14.807Z,1.80
2018-04-30T17:11:42.267Z,2.90
2018-04-30T17:14:10.504Z,1.48
2018-04-30T17:16:38.728Z,1.83
2018-04-30T17:19:06.185Z,1.40
2018-04-30T17:21:33.676Z,2.10
2018-04-30T17:26:51.757Z,2.80
2018-04-30T17:29:19.200Z,2.00
2018-04-30T17:31:46.656Z,2.50
2018-04-30T17:34:14.113Z,1.50
2018-04-30T17:36:42.379Z,1.42
2018-04-30T17:39:09.832Z,2.60
2018-04-30T17:41:37.303Z,1.10
2018-04-30T17:44:04.807Z,1.47
2018-04-30T17:46:32.262Z,1.60
2018-04-30T17:48:59.735Z,1.67
2018-04-30T17:51:27.225Z,1.70
2018-04-30T17:53:55.439Z,2.30
2018-04-30T17:56:22.884Z,1.80
2018-04-30T17:58:51.165Z,1.00
2018-04-30T18:01:18.578Z,1.85
2018-04-30T18:03:46.040Z,2.70
2018-04-30T18:06:13.505Z,1.30
2018-04-30T18:08:40.962Z,1.25
2018-04-30T18:11:08.447Z,2.00
2018-04-30T18:13:35.893Z,1.63
2018-04-30T18:16:04.109Z,1.83
2018-04-30T18:18:31.575Z,1.10
2018-04-30T18:20:59.040Z,1.10
2018-04-30T18:23:26.480Z,2.05
2018-04-30T18:25:54.704Z,1.33
2018-04-30T18:28:22.165Z,1.40
2018-04-30T18:33:41.092Z,1.10
2018-04-30T18:36:08.629Z,1.58
2018-04-30T18:38:36.036Z,1.83
2018-04-30T18:41:03.499Z,1.90
2018-04-30T18:43:30.963Z,1.20
2018-04-30T18:45:58.442Z,2.90
2018-04-30T18:48:25.905Z,3.90
2018-04-30T18:50:53.359Z,2.90
2018-04-30T18:53:20.852Z,1.30
2018-04-30T18:55:48.302Z,1.90
2018-04-30T18:58:15.790Z,1.00
2018-04-30T19:00:43.261Z,1.20
2018-04-30T19:03:10.726Z,1.10
2018-04-30T19:05:38.193Z,1.10
2018-04-30T19:08:05.707Z,2.10
2018-04-30T19:10:33.164Z,1.37
2018-04-30T19:13:00.623Z,4.10
2018-04-30T19:15:28.098Z,1.67
2018-04-30T19:17:55.562Z,1.10
2018-04-30T19:20:23.045Z,1.20
2018-04-30T19:22:51.281Z,1.10
2018-04-30T19:25:18.781Z,2.35
2018-04-30T19:27:46.256Z,1.50
2018-04-30T19:30:13.728Z,1.20
2018-04-30T19:32:41.212Z,3.33
2018-04-30T19:35:08.674Z,2.00
2018-04-30T19:37:36.160Z,1.10
2018-04-30T19:40:04.399Z,1.60
2018-04-30T19:42:31.896Z,1.20
2018-04-30T19:44:59.377Z,1.25
2018-04-30T19:47:26.836Z,1.10
2018-04-30T19:49:54.319Z,1.10
2018-04-30T19:52:21.829Z,1.17
2018-04-30T19:54:50.041Z,1.12
2018-04-30T19:57:18.194Z,1.20
2018-04-30T19:59:45.659Z,1.52
2018-04-30T20:02:13.114Z,0.90
2018-04-30T20:04:41.388Z,1.83
2018-04-30T20:07:08.857Z,1.40
2018-04-30T20:09:36.311Z,1.40
2018-04-30T20:12:03.822Z,1.10
2018-04-30T20:14:32.056Z,1.70
2018-04-30T20:16:59.541Z,1.90
2018-04-30T20:19:27.032Z,1.10
2018-04-30T20:21:55.251Z,6.10
2018-04-30T20:24:22.720Z,2.33
2018-04-30T20:26:50.193Z,1.10
2018-04-30T20:29:17.680Z,2.05
2018-04-30T20:31:45.269Z,2.60
2018-04-30T20:34:28.727Z,2.20
2018-04-30T20:36:56.203Z,2.00
2018-04-30T20:39:23.674Z,3.47
2018-04-30T20:41:51.140Z,2.97
2018-04-30T20:44:18.686Z,2.08
2018-04-30T20:46:46.878Z,1.50
2018-04-30T20:49:14.354Z,1.20
2018-04-30T20:51:42.597Z,1.12
2018-04-30T20:54:10.137Z,1.10
2018-04-30T20:56:37.588Z,2.05
2018-04-30T20:59:05.206Z,1.80
2018-04-30T21:01:32.658Z,1.20
2018-04-30T21:04:00.888Z,1.10
2018-04-30T21:06:28.403Z,1.20
2018-04-30T21:09:07.837Z,2.00
2018-04-30T21:11:35.326Z,1.15
2018-04-30T21:14:03.555Z,1.20
2018-04-30T21:16:31.037Z,2.10
2018-04-30T21:18:58.502Z,2.87
2018-04-30T21:21:25.958Z,2.40
2018-04-30T21:23:53.440Z,2.95
2018-04-30T21:26:20.898Z,1.20
2018-04-30T21:28:48.407Z,1.50
2018-04-30T21:31:16.002Z,1.50
2018-04-30T21:33:43.555Z,1.55
2018-04-30T21:36:11.007Z,1.60
2018-04-30T21:38:38.487Z,1.60
2018-04-30T21:41:05.973Z,1.50
2018-04-30T21:43:33.543Z,2.28
2018-04-30T21:46:01.008Z,3.70
2018-04-30T21:48:28.489Z,1.50
2018-04-30T21:50:55.973Z,2.80
2018-04-30T21:53:24.245Z,1.10
2018-04-30T21:55:51.699Z,1.30
2018-04-30T21:58:19.159Z,1.40
2018-04-30T22:00:46.631Z,3.17
2018-04-30T22:03:14.100Z,1.50
2018-04-30T22:05:41.554Z,1.60
2018-04-30T22:08:09.025Z,1.80
2018-04-30T22:10:36.513Z,1.50
2018-04-30T22:13:03.994Z,1.60
2018-04-30T22:15:31.473Z,1.75
2018-04-30T22:17:58.958Z,1.70
2018-04-30T22:20:27.192Z,2.62
2018-04-30T22:22:54.659Z,2.12
2018-04-30T22:25:22.122Z,1.87
2018-04-30T22:27:49.577Z,1.90
2018-04-30T22:30:17.053Z,2.00
2018-04-30T22:32:44.525Z,2.50
2018-04-30T22:35:11.987Z,2.30
2018-04-30T22:37:39.499Z,2.28
2018-04-30T22:40:06.970Z,2.72
2018-04-30T22:42:34.552Z,2.20
2018-04-30T22:45:02.474Z,3.17
2018-04-30T22:47:29.998Z,2.50
2018-04-30T22:49:57.458Z,2.78
2018-04-30T22:52:24.984Z,2.67
2018-04-30T22:54:52.452Z,2.10
2018-04-30T22:57:19.907Z,2.17
2018-04-30T22:59:48.156Z,3.17
2018-04-30T23:02:15.627Z,1.70
2018-04-30T23:04:43.091Z,2.00
2018-04-30T23:07:10.588Z,4.20
2018-04-30T23:09:38.061Z,2.60
2018-04-30T23:12:05.555Z,2.50
2018-04-30T23:14:33.795Z,1.85
2018-04-30T23:17:01.265Z,2.20
2018-04-30T23:19:28.740Z,1.92
2018-04-30T23:21:56.217Z,2.33
2018-04-30T23:24:23.693Z,2.50
2018-04-30T23:26:51.158Z,3.40
2018-04-30T23:29:18.621Z,2.50
2018-04-30T23:31:46.098Z,2.60
2018-04-30T23:34:13.576Z,2.53
2018-04-30T23:36:41.026Z,3.25
2018-04-30T23:39:08.488Z,3.47
2018-04-30T23:41:35.965Z,2.90
2018-04-30T23:44:03.449Z,2.85
2018-04-30T23:46:30.931Z,2.80
2018-04-30T23:48:59.184Z,3.58
2018-04-30T23:51:26.682Z,2.60
2018-04-30T23:53:54.930Z,3.58
2018-04-30T23:56:22.414Z,2.60
2018-04-30T23:58:49.897Z,3.28
